Time;durP1;ratioP1;P1;durP2;ratioP2;P2;SDS_P1;SDS_P2;PMS_P1;PMS_P2;Temp;Humidity;BMP_temperature;BMP_pressure;BME280_temperature;BME280_humidity;BME280_pressure;Samples;Min_cycle;Max_cycle;Signal;HPM_P1;HPM_P2
2022/04/07 00:00:51;;;;;;;1.40;1.30;;;;;;;8.95;100.00;95188.81;5101150;28;20228;-82
2022/04/07 00:03:18;;;;;;;2.70;1.57;;;;;;;8.90;100.00;95181.50;5093900;28;20235;-82
2022/04/07 00:05:45;;;;;;;1.53;1.43;;;;;;;8.84;100.00;95158.28;5097659;28;20201;-82
2022/04/07 00:08:13;;;;;;;1.60;1.50;;;;;;;8.87;100.00;95155.06;5090835;28;20296;-81
2022/04/07 00:10:40;;;;;;;1.83;1.67;;;;;;;8.81;100.00;95161.44;5101953;28;20210;-82
2022/04/07 00:13:08;;;;;;;1.47;1.37;;;;;;;8.89;100.00;95173.66;5092069;28;20219;-81
2022/04/07 00:15:35;;;;;;;3.83;1.50;;;;;;;8.81;100.00;95160.63;5093534;28;20226;-81
2022/04/07 00:18:04;;;;;;;1.50;1.20;;;;;;;8.70;100.00;95133.56;5107072;27;20230;-82
2022/04/07 00:20:31;;;;;;;1.40;1.30;;;;;;;8.69;100.00;95131.13;5096113;28;20204;-82
2022/04/07 00:22:58;;;;;;;1.73;1.50;;;;;;;8.61;100.00;95137.75;5092348;28;20316;-81
2022/04/07 00:25:26;;;;;;;1.70;1.30;;;;;;;8.72;100.00;95144.09;5102150;28;20203;-81
2022/04/07 00:27:53;;;;;;;4.27;1.70;;;;;;;8.78;100.00;95148.47;5087803;28;20280;-82
2022/04/07 00:30:22;;;;;;;1.60;1.50;;;;;;;8.78;100.00;95137.72;5089368;28;20325;-82
2022/04/07 00:32:50;;;;;;;2.53;1.50;;;;;;;8.85;100.00;95146.41;5097068;28;20223;-82
2022/04/07 00:35:18;;;;;;;2.60;1.40;;;;;;;8.90;100.00;95151.06;5095608;28;20289;-82
2022/04/07 00:37:45;;;;;;;1.40;1.30;;;;;;;8.91;100.00;95145.44;5095870;28;20232;-83
2022/04/07 00:40:13;;;;;;;3.60;1.50;;;;;;;8.90;100.00;95133.03;5092773;28;20236;-82
2022/04/07 00:42:47;;;;;;;1.50;1.40;;;;;;;8.94;100.00;95133.34;5093683;28;20258;-82
2022/04/07 00:45:15;;;;;;;1.50;1.40;;;;;;;8.89;100.00;95136.78;5095497;27;20207;-82
2022/04/07 00:47:44;;;;;;;1.60;1.50;;;;;;;8.97;100.00;95146.31;5098602;27;20205;-82
2022/04/07 00:50:12;;;;;;;1.87;1.60;;;;;;;9.01;100.00;95159.03;5108631;27;20207;-83
2022/04/07 00:52:42;;;;;;;1.73;1.63;;;;;;;8.92;100.00;95151.63;5094642;28;20241;-82
2022/04/07 00:55:11;;;;;;;2.40;1.40;;;;;;;8.92;100.00;95160.53;5092486;28;20672;-82
2022/04/07 00:57:40;;;;;;;1.90;1.47;;;;;;;8.96;100.00;95145.50;5088358;28;20209;-82
2022/04/07 01:00:09;;;;;;;1.40;1.30;;;;;;;8.95;100.00;95145.75;5096235;28;20220;-82
2022/04/07 01:02:37;;;;;;;1.90;1.50;;;;;;;8.91;100.00;95145.44;5095863;28;20207;-82
2022/04/07 01:05:06;;;;;;;1.70;1.60;;;;;;;8.97;100.00;95151.69;5095336;28;20205;-83
2022/04/07 01:07:37;;;;;;;2.37;1.87;;;;;;;8.94;100.00;95144.09;5098773;27;20201;-82
2022/04/07 01:10:05;;;;;;;1.60;1.50;;;;;;;8.94;100.00;95158.38;5086724;28;20300;-83
2022/04/07 01:12:32;;;;;;;1.80;1.70;;;;;;;8.92;100.00;95151.63;5093407;27;20221;-83
2022/04/07 01:15:00;;;;;;;4.57;2.00;;;;;;;8.92;100.00;95147.06;5106859;27;20235;-83
2022/04/07 01:17:27;;;;;;;3.40;1.77;;;;;;;8.96;100.00;95150.88;5100408;28;20299;-81
2022/04/07 01:19:55;;;;;;;2.00;1.80;;;;;;;8.94;100.00;95139.53;5109479;27;20243;-82
2022/04/07 01:22:24;;;;;;;2.47;1.90;;;;;;;8.98;100.00;95151.44;5096944;28;20226;-83
2022/04/07 01:24:52;;;;;;;1.87;1.63;;;;;;;8.98;100.00;95156.84;5089844;28;20257;-82
2022/04/07 01:27:20;;;;;;;2.43;1.80;;;;;;;8.95;100.00;95157.31;5095142;27;20212;-81
2022/04/07 01:29:47;;;;;;;2.17;1.90;;;;;;;8.91;100.00;95156.22;5110384;27;20236;-82
2022/04/07 01:32:19;;;;;;;1.57;1.47;;;;;;;8.97;100.00;95155.19;5092913;28;20204;-82
2022/04/07 01:34:46;;;;;;;2.17;1.83;;;;;;;8.95;100.00;95154.63;5090555;28;20208;-82
2022/04/07 01:37:14;;;;;;;4.60;1.80;;;;;;;8.87;100.00;95143.47;5102264;28;20224;-81
2022/04/07 01:39:43;;;;;;;2.23;2.03;;;;;;;8.91;100.00;95161.59;5090986;28;20247;-82
2022/04/07 01:42:14;;;;;;;2.30;2.10;;;;;;;8.88;100.00;95159.38;5097529;28;20212;-82
2022/04/07 01:44:49;;;;;;;2.23;1.83;;;;;;;8.86;100.00;95158.81;5095851;28;20295;-83
2022/04/07 01:47:20;;;;;;;2.27;2.07;;;;;;;8.88;100.00;95154.00;5094318;28;20261;-82
2022/04/07 01:49:53;;;;;;;2.57;2.13;;;;;;;8.86;100.00;95148.03;5097402;28;20257;-81
2022/04/07 01:52:20;;;;;;;2.30;2.10;;;;;;;8.92;100.00;95157.84;5097506;28;20308;-82
2022/04/07 01:54:49;;;;;;;2.93;2.07;;;;;;;8.90;100.00;95154.56;5101096;28;20305;-83
2022/04/07 01:57:22;;;;;;;2.33;2.13;;;;;;;8.91;100.00;95166.97;5098333;28;20219;-82
2022/04/07 01:59:50;;;;;;;2.87;2.00;;;;;;;8.96;100.00;95164.34;5094203;28;20237;-82
2022/04/07 02:02:17;;;;;;;2.23;2.00;;;;;;;8.95;100.00;95170.78;5095237;28;20293;-83
2022/04/07 02:04:55;;;;;;;3.23;2.20;;;;;;;8.91;100.00;95161.59;5087123;28;20209;-81
2022/04/07 02:07:22;;;;;;;2.87;2.27;;;;;;;8.87;100.00;95173.09;5089297;28;20266;-82
2022/04/07 02:09:49;;;;;;;2.67;2.17;;;;;;;8.82;100.00;95186.47;5089173;28;20205;-84
2022/04/07 02:12:20;;;;;;;3.03;2.30;;;;;;;8.79;100.00;95174.31;5098900;28;20253;-85
2022/04/07 02:14:48;;;;;;;2.17;2.07;;;;;;;8.75;100.00;95169.69;5097451;28;20201;-82
2022/04/07 02:17:17;;;;;;;3.53;2.00;;;;;;;8.67;100.00;95170.94;5098141;28;20212;-81
2022/04/07 02:19:46;;;;;;;2.97;2.20;;;;;;;8.61;100.00;95178.09;5099180;28;20278;-82
2022/04/07 02:22:13;;;;;;;3.07;2.60;;;;;;;8.59;100.00;95177.53;5101826;28;20204;-81
2022/04/07 02:24:41;;;;;;;3.70;2.80;;;;;;;8.63;100.00;95184.06;5095053;28;20209;-83
2022/04/07 02:27:08;;;;;;;4.03;3.03;;;;;;;8.67;100.00;95197.84;5103303;28;20204;-82
2022/04/07 02:29:37;;;;;;;3.00;2.70;;;;;;;8.69;100.00;95203.78;5112037;28;20232;-82
2022/04/07 02:32:06;;;;;;;2.10;1.90;;;;;;;8.66;100.00;95207.78;5089846;28;20216;-82
2022/04/07 02:34:33;;;;;;;2.90;2.10;;;;;;;8.61;100.00;95191.56;5089504;28;20228;-81
2022/04/07 02:37:00;;;;;;;2.00;1.90;;;;;;;8.67;100.00;95193.28;5094635;28;20202;-83
2022/04/07 02:39:27;;;;;;;2.80;1.93;;;;;;;8.58;100.00;95177.78;5102486;28;20304;-83
2022/04/07 02:41:54;;;;;;;2.43;2.23;;;;;;;8.48;100.00;95183.00;5093660;28;20201;-82
2022/04/07 02:44:22;;;;;;;2.30;2.10;;;;;;;8.51;100.00;95190.56;5102858;28;20200;-82
2022/04/07 02:46:50;;;;;;;2.50;2.30;;;;;;;8.54;100.00;95158.63;5100185;27;20200;-81
2022/04/07 02:49:17;;;;;;;2.00;1.80;;;;;;;8.51;100.00;95145.66;5093898;28;20193;-81
2022/04/07 02:51:45;;;;;;;1.97;1.87;;;;;;;8.42;100.00;95159.78;5093609;28;20486;-82
2022/04/07 02:54:12;;;;;;;2.33;1.93;;;;;;;8.51;100.00;95145.66;5101290;28;20215;-81
2022/04/07 02:56:39;;;;;;;1.60;1.50;;;;;;;8.53;100.00;95137.34;5097102;28;20237;-82
2022/04/07 02:59:06;;;;;;;1.40;1.30;;;;;;;8.46;100.00;95150.16;5100877;28;20205;-81
2022/04/07 03:01:33;;;;;;;1.60;1.50;;;;;;;8.51;100.00;95161.81;5090041;27;20196;-81
2022/04/07 03:04:02;;;;;;;2.77;1.80;;;;;;;8.55;100.00;95151.38;5095075;28;20204;-82
2022/04/07 03:06:29;;;;;;;3.20;1.90;;;;;;;8.52;100.00;95160.75;5096932;28;20202;-82
2022/04/07 03:08:56;;;;;;;1.77;1.50;;;;;;;8.44;100.00;95176.47;5117782;27;20301;-82
2022/04/07 03:11:23;;;;;;;1.60;1.50;;;;;;;8.34;100.00;95175.25;5099132;28;20216;-82
2022/04/07 03:13:50;;;;;;;1.90;1.80;;;;;;;8.32;100.00;95173.91;5090609;28;20231;-82
2022/04/07 03:16:17;;;;;;;2.40;2.20;;;;;;;8.26;100.00;95170.25;5091138;28;20227;-82
2022/04/07 03:18:44;;;;;;;3.30;2.10;;;;;;;8.28;100.00;95148.50;5092665;28;20211;-81
2022/04/07 03:21:12;;;;;;;4.50;3.10;;;;;;;8.28;100.00;95152.00;5093722;28;20223;-81
2022/04/07 03:23:40;;;;;;;2.77;2.00;;;;;;;8.26;100.00;95164.88;5098050;28;20212;-81
2022/04/07 03:26:07;;;;;;;2.00;1.73;;;;;;;8.35;100.00;95160.75;5102163;28;20211;-82
2022/04/07 03:28:34;;;;;;;1.80;1.67;;;;;;;8.34;100.00;95148.38;5097795;28;20228;-82
2022/04/07 03:31:01;;;;;;;2.03;1.83;;;;;;;8.38;100.00;95150.56;5094037;28;20331;-82
2022/04/07 03:33:28;;;;;;;3.20;1.90;;;;;;;8.42;100.00;95167.88;5100526;28;20205;-83
2022/04/07 03:35:55;;;;;;;1.73;1.40;;;;;;;8.51;100.00;95175.25;5096136;27;20258;-82
2022/04/07 03:38:24;;;;;;;2.17;1.43;;;;;;;8.44;100.00;95171.09;5099990;28;20204;-84
2022/04/07 03:40:51;;;;;;;2.10;1.70;;;;;;;8.37;100.00;95175.84;5097022;28;20225;-81
2022/04/07 03:43:18;;;;;;;1.43;1.33;;;;;;;8.32;100.00;95174.72;5096626;28;20204;-81
2022/04/07 03:45:45;;;;;;;1.50;1.40;;;;;;;8.38;100.00;95177.47;5092749;28;20227;-82
2022/04/07 03:48:12;;;;;;;1.90;1.30;;;;;;;8.35;100.00;95158.06;5108258;27;20212;-84
2022/04/07 03:50:40;;;;;;;3.00;1.30;;;;;;;8.34;100.00;95161.00;5110064;27;20315;-82
2022/04/07 03:53:08;;;;;;;7.30;1.40;;;;;;;8.26;100.00;95166.75;5104105;28;20220;-82
2022/04/07 03:55:36;;;;;;;2.47;1.43;;;;;;;8.19;100.00;95169.59;5092702;28;20200;-82
2022/04/07 03:58:03;;;;;;;5.07;1.33;;;;;;;8.24;100.00;95172.41;5105207;28;20200;-81
2022/04/07 04:00:30;;;;;;;1.97;1.20;;;;;;;8.25;100.00;95160.56;5098050;28;20216;-82
2022/04/07 04:02:58;;;;;;;3.50;1.30;;;;;;;8.29;100.00;95172.47;5099392;28;20212;-82
2022/04/07 04:05:25;;;;;;;2.20;1.20;;;;;;;8.29;100.00;95163.59;5096345;28;20269;-82
2022/04/07 04:07:52;;;;;;;1.80;1.43;;;;;;;8.32;100.00;95161.25;5090967;28;20200;-81
2022/04/07 04:10:19;;;;;;;1.50;1.40;;;;;;;8.29;100.00;95150.97;5088681;28;20208;-81
2022/04/07 04:12:47;;;;;;;2.80;1.50;;;;;;;8.25;100.00;95141.72;5090988;28;20210;-82
2022/04/07 04:15:14;;;;;;;2.40;1.30;;;;;;;8.31;100.00;95140.00;5097941;28;20231;-82
2022/04/07 04:17:41;;;;;;;1.77;1.63;;;;;;;8.25;100.00;95144.41;5101726;28;20204;-82
2022/04/07 04:20:10;;;;;;;1.80;1.70;;;;;;;8.22;100.00;95152.19;5094108;28;20221;-84
2022/04/07 04:22:37;;;;;;;3.60;1.43;;;;;;;8.22;100.00;95120.72;5095916;27;20209;-82
2022/04/07 04:25:07;;;;;;;2.07;1.70;;;;;;;8.17;100.00;95107.19;5101928;28;20192;-82
2022/04/07 04:27:35;;;;;;;1.40;1.30;;;;;;;8.15;100.00;95100.44;5104968;27;20209;-81
2022/04/07 04:30:04;;;;;;;3.30;1.87;;;;;;;8.08;100.00;95097.91;5090493;28;20233;-82
2022/04/07 04:32:31;;;;;;;2.10;1.90;;;;;;;8.13;100.00;95114.13;5107804;27;20224;-82
2022/04/07 04:34:58;;;;;;;1.70;1.60;;;;;;;8.17;100.00;95117.94;5091710;28;20212;-81
2022/04/07 04:37:26;;;;;;;1.70;1.60;;;;;;;8.19;100.00;95099.69;5094408;28;20220;-83
2022/04/07 04:39:53;;;;;;;1.70;1.60;;;;;;;8.23;100.00;95092.78;5101163;27;20284;-82
2022/04/07 04:42:21;;;;;;;1.97;1.70;;;;;;;8.20;100.00;95101.34;5108812;27;20204;-83
2022/04/07 04:44:49;;;;;;;2.10;1.90;;;;;;;8.14;100.00;95091.56;5095783;28;20207;-82
2022/04/07 04:47:19;;;;;;;4.33;3.10;;;;;;;8.20;100.00;95074.44;5109775;27;20200;-81
2022/04/07 04:49:46;;;;;;;2.80;2.33;;;;;;;8.31;100.00;95091.59;5096983;28;20357;-82
2022/04/07 04:52:13;;;;;;;3.80;2.83;;;;;;;8.28;100.00;95087.47;5102465;28;20216;-82
2022/04/07 04:54:41;;;;;;;2.20;2.00;;;;;;;8.16;100.00;95089.47;5096086;28;20204;-82
2022/04/07 04:57:08;;;;;;;2.17;1.80;;;;;;;8.12;100.00;95082.94;5093786;28;20283;-83
2022/04/07 04:59:35;;;;;;;1.70;1.57;;;;;;;8.16;100.00;95085.94;5091000;28;20239;-83
2022/04/07 05:02:04;;;;;;;2.20;2.00;;;;;;;8.16;100.00;95078.69;5103128;28;20273;-82
2022/04/07 05:04:33;;;;;;;2.00;1.60;;;;;;;8.26;100.00;95057.31;5100401;28;20215;-82
2022/04/07 05:07:00;;;;;;;1.63;1.53;;;;;;;8.20;100.00;95052.94;5100249;28;20202;-82
2022/04/07 05:09:27;;;;;;;3.27;1.60;;;;;;;8.09;100.00;95066.47;5099728;27;20238;-83
2022/04/07 05:11:54;;;;;;;4.00;1.93;;;;;;;8.06;100.00;95057.03;5102866;28;20215;-83
2022/04/07 05:14:21;;;;;;;1.90;1.53;;;;;;;8.11;100.00;95049.03;5095465;28;20204;-82
2022/04/07 05:16:48;;;;;;;3.47;3.17;;;;;;;8.07;100.00;95058.66;5090917;28;20234;-82
2022/04/07 05:19:15;;;;;;;5.00;4.53;;;;;;;8.09;100.00;95067.28;5092541;28;20226;-82
2022/04/07 05:21:44;;;;;;;1.80;1.70;;;;;;;7.97;100.00;95053.94;5100964;28;20220;-82
2022/04/07 05:24:11;;;;;;;1.60;1.50;;;;;;;8.02;100.00;95073.88;5103366;27;20215;-82
2022/04/07 05:26:38;;;;;;;2.50;1.63;;;;;;;8.06;100.00;95094.66;5092441;28;20223;-82
2022/04/07 05:29:05;;;;;;;3.00;1.50;;;;;;;7.99;100.00;95084.06;5098820;28;20201;-81
2022/04/07 05:31:32;;;;;;;1.60;1.50;;;;;;;7.97;100.00;95072.75;5096207;28;20209;-84
2022/04/07 05:33:59;;;;;;;2.63;2.27;;;;;;;7.96;100.00;95067.63;5092830;28;20201;-82
2022/04/07 05:36:27;;;;;;;8.40;3.50;;;;;;;8.01;100.00;95067.69;5093196;28;20209;-83
2022/04/07 05:38:55;;;;;;;3.20;2.20;;;;;;;8.05;100.00;95087.66;5090780;28;20206;-83
2022/04/07 05:41:22;;;;;;;1.50;1.30;;;;;;;8.02;100.00;95088.13;5099482;28;20236;-80
2022/04/07 05:43:50;;;;;;;1.43;1.33;;;;;;;7.99;100.00;95073.31;5095252;28;20209;-83
2022/04/07 05:46:17;;;;;;;1.77;1.57;;;;;;;7.99;100.00;95061.78;5092415;28;20226;-81
2022/04/07 05:48:44;;;;;;;1.70;1.60;;;;;;;8.08;100.00;95076.41;5103208;28;20238;-82
2022/04/07 05:51:12;;;;;;;2.73;1.90;;;;;;;8.01;100.00;95062.31;5091595;28;20229;-81
2022/04/07 05:53:39;;;;;;;2.20;2.00;;;;;;;7.97;100.00;95071.94;5103167;28;20215;-81
2022/04/07 05:56:07;;;;;;;2.50;2.30;;;;;;;8.06;100.00;95078.53;5089852;28;20196;-81
2022/04/07 05:58:35;;;;;;;2.20;2.00;;;;;;;8.08;100.00;95072.91;5111254;28;20303;-84
2022/04/07 06:01:02;;;;;;;2.83;2.07;;;;;;;8.06;100.00;95083.09;5110505;28;20226;-82
2022/04/07 06:03:31;;;;;;;2.43;1.80;;;;;;;8.08;100.00;95076.41;5091852;28;20212;-81
2022/04/07 06:05:58;;;;;;;2.00;1.80;;;;;;;8.09;100.00;95071.84;5099841;28;20239;-82
2022/04/07 06:08:25;;;;;;;1.90;1.80;;;;;;;8.12;100.00;95072.16;5102818;28;20204;-81
2022/04/07 06:10:53;;;;;;;1.87;1.77;;;;;;;8.17;100.00;95074.09;5091678;28;20205;-83
2022/04/07 06:13:21;;;;;;;5.20;2.20;;;;;;;8.26;100.00;95084.22;5105295;28;20203;-81
2022/04/07 06:15:48;;;;;;;4.53;4.13;;;;;;;8.32;100.00;95083.28;5101999;28;20236;-84
2022/04/07 06:18:16;;;;;;;2.10;1.87;;;;;;;8.33;100.00;95084.91;5090443;28;20289;-83
2022/04/07 06:20:46;;;;;;;2.43;2.20;;;;;;;8.37;100.00;95089.78;5096513;28;20227;-82
2022/04/07 06:23:13;;;;;;;3.20;1.90;;;;;;;8.41;100.00;95099.00;5092423;28;20259;-81
2022/04/07 06:25:40;;;;;;;2.10;1.90;;;;;;;8.48;100.00;95092.38;5097416;28;20204;-82
2022/04/07 06:28:08;;;;;;;3.53;2.70;;;;;;;8.41;100.00;95075.59;5092425;28;20218;-83
2022/04/07 06:30:36;;;;;;;4.37;2.30;;;;;;;8.26;100.00;95073.44;5101739;28;20246;-83
2022/04/07 06:33:03;;;;;;;2.97;2.20;;;;;;;8.27;100.00;95079.66;5092620;28;20200;-82
2022/04/07 06:35:30;;;;;;;2.90;2.60;;;;;;;8.31;100.00;95075.44;5095892;27;20208;-82
2022/04/07 06:37:58;;;;;;;6.03;4.53;;;;;;;8.32;100.00;95080.59;5098703;28;20204;-82
2022/04/07 06:40:26;;;;;;;7.87;3.97;;;;;;;8.35;100.00;95084.63;5094246;28;20260;-83
2022/04/07 06:42:55;;;;;;;3.67;2.93;;;;;;;8.40;100.00;95089.28;5108956;27;20200;-82
2022/04/07 06:45:22;;;;;;;3.97;3.13;;;;;;;8.41;100.00;95072.91;5102179;28;20208;-82
2022/04/07 06:47:50;;;;;;;3.97;3.13;;;;;;;8.29;100.00;95082.91;5099076;28;20303;-82
2022/04/07 06:50:19;;;;;;;3.17;2.87;;;;;;;8.32;100.00;95077.06;5099442;28;20204;-82
2022/04/07 06:52:46;;;;;;;7.47;6.60;;;;;;;8.28;100.00;95062.44;5101751;27;20208;-82
2022/04/07 06:55:15;;;;;;;11.53;9.13;;;;;;;8.28;100.00;95060.56;5100543;28;20291;-82
2022/04/07 06:57:50;;;;;;;3.70;2.73;;;;;;;8.27;100.00;95058.13;5098732;28;20200;-82
2022/04/07 07:00:18;;;;;;;2.87;2.47;;;;;;;8.32;100.00;95055.56;5096155;28;20615;-81
2022/04/07 07:02:47;;;;;;;6.70;3.50;;;;;;;8.39;100.00;95053.50;5095830;28;20239;-81
2022/04/07 07:05:16;;;;;;;3.83;2.27;;;;;;;8.37;100.00;95055.63;5094734;28;20236;-82
2022/04/07 07:07:44;;;;;;;4.33;2.57;;;;;;;8.33;100.00;95049.94;5100524;28;20212;-82
2022/04/07 07:10:12;;;;;;;5.13;2.70;;;;;;;8.44;100.00;95048.19;5104884;27;20207;-83
2022/04/07 07:12:39;;;;;;;3.77;2.50;;;;;;;8.49;100.00;95060.91;5099617;28;20212;-82
2022/04/07 07:15:07;;;;;;;4.00;2.60;;;;;;;8.48;100.00;95064.66;5096988;28;20201;-82
2022/04/07 07:17:39;;;;;;;4.30;3.10;;;;;;;8.53;100.00;95052.06;5101587;28;20200;-83
2022/04/07 07:20:07;;;;;;;3.27;2.20;;;;;;;8.52;100.00;95055.00;5089198;28;20204;-81
2022/04/07 07:22:36;;;;;;;4.33;2.70;;;;;;;8.53;100.00;95065.53;5098469;27;20323;-82
2022/04/07 07:25:03;;;;;;;2.67;2.07;;;;;;;8.71;100.00;95034.81;5097661;27;20204;-82
2022/04/07 07:27:36;;;;;;;4.53;2.23;;;;;;;8.81;100.00;95034.13;5100434;27;20277;-81
2022/04/07 07:30:05;;;;;;;2.90;1.90;;;;;;;8.93;100.00;95041.00;5098899;27;20229;-82
2022/04/07 07:32:32;;;;;;;1.70;1.60;;;;;;;8.96;100.00;95029.72;5101989;28;20213;-83
2022/04/07 07:34:59;;;;;;;2.87;1.70;;;;;;;8.95;100.00;95006.56;5089109;28;20209;-82
2022/04/07 07:37:26;;;;;;;2.77;1.70;;;;;;;8.88;100.00;94997.88;5086832;27;20212;-84
2022/04/07 07:39:55;;;;;;;1.87;1.60;;;;;;;8.91;100.00;94973.16;5075142;28;20193;-82
2022/04/07 07:42:22;;;;;;;4.03;1.57;;;;;;;8.94;100.00;94956.50;5091934;28;20240;-83
2022/04/07 07:44:50;;;;;;;5.43;2.93;;;;;;;9.00;100.00;94950.09;5095290;28;20208;-83
2022/04/07 07:47:17;;;;;;;3.70;2.47;;;;;;;9.00;100.00;94944.72;5098858;28;20204;-82
2022/04/07 07:49:44;;;;;;;2.37;1.60;;;;;;;9.10;100.00;94944.78;5088323;28;20200;-82
2022/04/07 07:52:11;;;;;;;2.90;1.30;;;;;;;9.19;100.00;94942.44;5095024;28;20335;-82
2022/04/07 07:54:38;;;;;;;2.80;1.63;;;;;;;9.28;100.00;94938.22;5092021;28;20291;-82
2022/04/07 07:57:08;;;;;;;1.10;1.00;;;;;;;9.33;100.00;94942.88;5099963;28;20223;-82
2022/04/07 07:59:35;;;;;;;1.83;1.07;;;;;;;9.45;100.00;94941.59;5101307;27;20212;-82
2022/04/07 08:02:02;;;;;;;2.60;1.00;;;;;;;9.48;100.00;94922.25;5096820;28;20283;-82
2022/04/07 08:04:29;;;;;;;2.03;1.20;;;;;;;9.54;100.00;94939.25;5095822;28;20239;-83
2022/04/07 08:06:58;;;;;;;1.70;1.43;;;;;;;9.59;100.00;94925.84;5099608;28;20307;-82
2022/04/07 08:09:25;;;;;;;4.20;1.20;;;;;;;9.62;100.00;94925.28;5090941;28;20228;-82
2022/04/07 08:11:52;;;;;;;1.17;1.07;;;;;;;9.70;100.00;94937.47;5095395;28;20200;-81
2022/04/07 08:14:21;;;;;;;1.63;1.17;;;;;;;9.69;100.00;94925.91;5101539;28;20211;-81
2022/04/07 08:16:48;;;;;;;0.80;0.80;;;;;;;9.64;100.00;94925.03;5091608;28;20232;-81
2022/04/07 08:19:15;;;;;;;0.90;0.87;;;;;;;9.61;100.00;94923.66;5097844;28;20203;-82
2022/04/07 08:21:42;;;;;;;1.37;1.17;;;;;;;9.68;100.00;94940.47;5092034;28;20216;-84
2022/04/07 08:24:09;;;;;;;1.50;1.10;;;;;;;9.68;100.00;94928.84;5088198;28;20205;-82
2022/04/07 08:26:37;;;;;;;1.20;1.10;;;;;;;9.65;100.00;94921.28;5096813;28;20196;-81
2022/04/07 08:29:04;;;;;;;2.83;1.10;;;;;;;9.66;100.00;94928.31;5101569;28;20300;-82
2022/04/07 08:31:32;;;;;;;1.10;1.00;;;;;;;9.73;100.00;94927.00;5093766;28;20228;-81
2022/04/07 08:33:59;;;;;;;0.97;0.90;;;;;;;9.79;100.00;94931.34;5094815;28;20204;-82
2022/04/07 08:36:27;;;;;;;0.90;0.80;;;;;;;9.94;100.00;94921.75;5094426;28;20204;-82
2022/04/07 08:38:54;;;;;;;1.23;0.90;;;;;;;9.81;100.00;94913.03;5098902;28;20273;-82
2022/04/07 08:41:22;;;;;;;1.50;1.10;;;;;;;9.84;100.00;94933.28;5097442;28;20224;-83
2022/04/07 08:43:49;;;;;;;0.90;0.90;;;;;;;9.96;100.00;94930.38;5095367;28;20375;-82
2022/04/07 08:46:16;;;;;;;1.23;0.80;;;;;;;10.07;100.00;94930.19;5088203;28;20261;-82
2022/04/07 08:48:45;;;;;;;1.73;0.80;;;;;;;10.11;100.00;94925.91;5093175;28;20230;-82
2022/04/07 08:51:13;;;;;;;0.90;0.90;;;;;;;10.18;100.00;94931.91;5101036;28;20219;-82
2022/04/07 08:53:40;;;;;;;1.10;1.00;;;;;;;10.28;100.00;94933.03;5091607;28;20272;-83
2022/04/07 08:56:10;;;;;;;1.40;1.30;;;;;;;10.40;100.00;94939.81;5102754;28;20204;-82
2022/04/07 08:58:38;;;;;;;1.20;1.10;;;;;;;10.47;100.00;94936.84;5104214;28;20295;-81
2022/04/07 09:01:05;;;;;;;1.80;1.20;;;;;;;10.63;100.00;94936.66;5097633;28;20402;-82
2022/04/07 09:03:32;;;;;;;0.93;0.90;;;;;;;10.77;100.00;94941.56;5099854;28;20295;-81
2022/04/07 09:06:02;;;;;;;2.63;1.00;;;;;;;10.86;100.00;94939.97;5094596;28;20205;-81
2022/04/07 09:08:31;;;;;;;1.00;0.90;;;;;;;10.95;100.00;94916.78;5100239;28;20290;-82
2022/04/07 09:11:00;;;;;;;1.83;1.20;;;;;;;11.04;100.00;94925.97;5098083;28;20223;-81
2022/04/07 09:13:31;;;;;;;1.33;0.93;;;;;;;11.01;100.00;94913.00;5089392;28;20204;-81
2022/04/07 09:16:00;;;;;;;1.93;0.97;;;;;;;11.13;100.00;94927.09;5097437;28;20256;-81
2022/04/07 09:18:27;;;;;;;1.50;1.03;;;;;;;11.18;100.00;94926.25;5108067;27;20282;-81
2022/04/07 09:20:55;;;;;;;3.77;1.10;;;;;;;11.37;100.00;94925.47;5090817;28;20217;-81
2022/04/07 09:23:23;;;;;;;1.27;1.17;;;;;;;11.51;100.00;94922.22;5093262;28;20220;-81
2022/04/07 09:25:51;;;;;;;4.00;1.20;;;;;;;11.58;100.00;94920.88;5095247;28;20232;-81
2022/04/07 09:28:29;;;;;;;1.43;1.20;;;;;;;11.63;100.00;94930.88;5087557;28;20201;-81
2022/04/07 09:30:58;;;;;;;2.10;1.70;;;;;;;11.55;100.00;94928.72;5093947;28;20228;-82
2022/04/07 09:33:26;;;;;;;6.00;1.50;;;;;;;11.58;100.00;94926.28;5086261;28;20197;-82
2022/04/07 09:36:05;;;;;;;4.03;2.57;;;;;;;11.63;100.00;94939.00;5094641;28;20204;-81
2022/04/07 09:38:35;;;;;;;1.57;1.20;;;;;;;11.63;100.00;94928.19;5104770;28;20235;-82
2022/04/07 09:41:07;;;;;;;2.17;1.30;;;;;;;11.59;100.00;94916.28;5098393;28;20226;-81
2022/04/07 09:43:43;;;;;;;3.43;1.63;;;;;;;11.63;100.00;94906.56;5088145;28;20209;-83
2022/04/07 09:46:11;;;;;;;6.77;1.70;;;;;;;11.67;100.00;94913.03;5096888;28;20269;-81
2022/04/07 09:48:38;;;;;;;2.67;1.33;;;;;;;11.71;100.00;94919.53;5097116;28;20201;-82
2022/04/07 09:51:07;;;;;;;1.73;1.33;;;;;;;11.70;100.00;94909.78;5095021;28;20212;-82
2022/04/07 09:53:38;;;;;;;2.20;1.30;;;;;;;11.66;100.00;94912.22;5092306;28;20200;-82
2022/04/07 09:56:07;;;;;;;4.23;1.60;;;;;;;11.73;100.00;94895.75;5090673;28;20200;-82
2022/04/07 09:58:35;;;;;;;3.03;1.27;;;;;;;11.75;100.00;94901.69;5096459;28;20216;-82
2022/04/07 10:01:03;;;;;;;3.37;1.40;;;;;;;11.74;100.00;94900.03;5066450;28;20245;-83
2022/04/07 10:03:31;;;;;;;3.37;1.20;;;;;;;11.74;100.00;94879.25;5052034;28;20336;-82
2022/04/07 10:06:00;;;;;;;3.37;1.07;;;;;;;11.71;100.00;94892.50;5062535;28;20211;-83
2022/04/07 10:08:27;;;;;;;3.83;1.40;;;;;;;11.71;100.00;94877.06;5071702;28;20289;-84
2022/04/07 10:10:56;;;;;;;3.97;1.83;;;;;;;11.78;100.00;94863.28;5063010;28;20204;-82
2022/04/07 10:13:24;;;;;;;10.53;2.20;;;;;;;11.86;100.00;94841.09;5062136;28;20213;-82
2022/04/07 10:15:53;;;;;;;2.73;1.77;;;;;;;11.95;100.00;94850.28;5061163;28;20217;-84
2022/04/07 10:18:28;;;;;;;5.80;1.60;;;;;;;12.11;100.00;94834.78;5065326;28;20194;-81
2022/04/07 10:20:59;;;;;;;1.90;1.13;;;;;;;12.01;100.00;94808.59;5075878;28;20216;-82
2022/04/07 10:23:47;;;;;;;1.50;1.17;;;;;;;12.18;100.00;94829.91;5056304;28;20261;-81
2022/04/07 10:26:17;;;;;;;1.43;1.13;;;;;;;12.29;100.00;94831.47;5066243;28;20220;-81
2022/04/07 10:28:54;;;;;;;2.67;1.20;;;;;;;12.37;100.00;94814.66;5055608;28;20225;-82
2022/04/07 10:31:25;;;;;;;2.53;1.20;;;;;;;12.49;100.00;94806.22;5049700;28;20217;-82
2022/04/07 10:33:52;;;;;;;2.07;1.27;;;;;;;12.57;100.00;94796.69;5064319;28;20274;-82
2022/04/07 10:36:20;;;;;;;4.07;1.30;;;;;;;12.61;100.00;94806.66;5066715;28;20236;-82
2022/04/07 10:38:49;;;;;;;2.77;1.50;;;;;;;12.72;100.00;94802.00;5066551;28;20252;-81
2022/04/07 10:41:53;;;;;;;1.50;1.20;;;;;;;12.75;100.00;94777.91;5065986;28;20210;-82
2022/04/07 10:44:24;;;;;;;2.90;1.40;;;;;;;12.79;100.00;94778.94;5064054;28;20214;-83
2022/04/07 10:47:02;;;;;;;1.63;1.07;;;;;;;12.63;100.00;94777.41;5064497;28;20209;-82
2022/04/07 10:49:31;;;;;;;5.00;1.40;;;;;;;12.85;97.96;94777.78;5058840;28;20297;-82
2022/04/07 10:52:02;;;;;;;1.33;1.13;;;;;;;13.06;85.38;94777.66;5059306;28;20208;-82
2022/04/07 10:54:29;;;;;;;0.87;0.70;;;;;;;13.49;69.72;94765.91;5063588;28;20219;-81
2022/04/07 10:56:59;;;;;;;1.33;0.60;;;;;;;13.93;67.70;94779.25;5059679;28;20202;-82
2022/04/07 10:59:29;;;;;;;1.37;0.93;;;;;;;13.89;73.40;94769.25;5051725;28;20213;-81
2022/04/07 11:02:01;;;;;;;0.80;0.80;;;;;;;13.56;75.47;94784.53;5060493;28;20289;-80
2022/04/07 11:04:39;;;;;;;1.07;0.70;;;;;;;13.44;77.83;94786.84;5069411;28;20305;-81
2022/04/07 11:07:22;;;;;;;2.83;0.60;;;;;;;13.70;66.88;94793.59;5059192;28;20201;-81
2022/04/07 11:10:11;;;;;;;1.43;0.60;;;;;;;14.07;63.24;94792.91;5055295;28;20275;-81
2022/04/07 11:12:42;;;;;;;0.83;0.60;;;;;;;14.19;61.80;94778.94;5060221;28;20265;-82
2022/04/07 11:15:30;;;;;;;3.43;0.80;;;;;;;14.42;60.33;94777.31;5061465;28;20247;-81
2022/04/07 11:18:04;;;;;;;1.17;1.07;;;;;;;14.39;73.68;94776.78;5058136;28;20208;-81
2022/04/07 11:20:31;;;;;;;0.77;0.63;;;;;;;14.15;66.93;94776.00;5066552;28;20262;-78
2022/04/07 11:23:01;;;;;;;0.50;0.50;;;;;;;14.16;64.38;94782.22;5054938;28;20260;-81
2022/04/07 11:25:31;;;;;;;0.60;0.50;;;;;;;14.37;58.32;94797.19;5057761;28;20198;-82
2022/04/07 11:28:19;;;;;;;1.93;1.30;;;;;;;14.19;85.62;94803.38;5062258;28;20217;-82
2022/04/07 11:30:50;;;;;;;3.37;1.30;;;;;;;13.52;89.70;94803.28;5048689;28;20236;-81
2022/04/07 11:33:39;;;;;;;1.53;1.23;;;;;;;13.04;92.04;94798.78;5057416;28;20208;-81
2022/04/07 11:36:33;;;;;;;2.80;1.80;;;;;;;12.92;96.44;94798.34;5056227;28;20214;-81
2022/04/07 11:39:00;;;;;;;3.63;1.27;;;;;;;12.73;98.40;94812.56;5069760;28;20297;-82